createdAt,value
2018-05-27T00:00:11.142Z,1014.15
2018-05-27T00:01:11.133Z,1014.18
2018-05-27T00:02:11.119Z,1014.16
2018-05-27T00:03:11.113Z,1014.17
2018-05-27T00:04:11.102Z,1014.17
2018-05-27T00:05:11.085Z,1014.11
2018-05-27T00:06:11.078Z,1014.14
2018-05-27T00:07:11.073Z,1014.16
2018-05-27T00:08:11.062Z,1014.17
2018-05-27T00:09:11.053Z,1014.17
2018-05-27T00:10:11.038Z,1014.16
2018-05-27T00:11:11.034Z,1014.14
2018-05-27T00:12:11.025Z,1014.09
2018-05-27T00:13:11.015Z,1014.09
2018-05-27T00:14:11.009Z,1014.06
2018-05-27T00:15:10.995Z,1014.04
2018-05-27T00:16:10.983Z,1014.03
2018-05-27T00:17:10.973Z,1013.94
2018-05-27T00:18:10.965Z,1013.98
2018-05-27T00:19:10.955Z,1013.97
2018-05-27T00:20:10.944Z,1013.93
2018-05-27T00:21:10.934Z,1013.94
2018-05-27T00:22:10.920Z,1013.93
2018-05-27T00:23:10.915Z,1013.93
2018-05-27T00:24:10.907Z,1013.89
2018-05-27T00:26:10.894Z,1013.88
2018-05-27T00:27:10.867Z,1013.88
2018-05-27T00:28:10.867Z,1013.88
2018-05-27T00:29:10.856Z,1013.89
2018-05-27T00:30:10.846Z,1013.95
2018-05-27T00:32:10.819Z,1013.89
2018-05-27T00:33:10.809Z,1013.94
2018-05-27T00:34:10.803Z,1013.90
2018-05-27T00:35:10.789Z,1013.93
2018-05-27T00:36:10.794Z,1013.90
2018-05-27T00:37:10.773Z,1013.93
2018-05-27T00:38:10.756Z,1013.93
2018-05-27T00:39:10.749Z,1013.92
2018-05-27T00:40:10.743Z,1013.93
2018-05-27T00:41:10.727Z,1013.92
2018-05-27T00:42:10.719Z,1013.95
2018-05-27T00:43:10.709Z,1013.92
2018-05-27T00:44:10.703Z,1013.93
2018-05-27T00:45:10.686Z,1013.94
2018-05-27T00:47:10.667Z,1013.92
2018-05-27T00:48:10.713Z,1013.92
2018-05-27T00:49:10.660Z,1013.89
2018-05-27T00:50:10.643Z,1013.90
2018-05-27T00:51:10.628Z,1013.86
2018-05-27T00:52:10.612Z,1013.87
2018-05-27T00:53:10.606Z,1013.87
2018-05-27T00:54:10.597Z,1013.83
2018-05-27T00:55:10.584Z,1013.84
2018-05-27T00:56:10.583Z,1013.83
2018-05-27T00:57:10.568Z,1013.85
2018-05-27T00:58:10.555Z,1013.79
2018-05-27T00:59:10.548Z,1013.80
2018-05-27T01:00:10.539Z,1013.82
2018-05-27T01:01:10.533Z,1013.80
2018-05-27T01:02:10.513Z,1013.79
2018-05-27T01:03:10.501Z,1013.80
2018-05-27T01:04:10.494Z,1013.75
2018-05-27T01:05:10.481Z,1013.77
2018-05-27T01:06:10.472Z,1013.81
2018-05-27T01:07:10.463Z,1013.78
2018-05-27T01:08:10.452Z,1013.77
2018-05-27T01:09:10.437Z,1013.77
2018-05-27T01:10:10.423Z,1013.80
2018-05-27T01:11:10.421Z,1013.79
2018-05-27T01:12:10.411Z,1013.78
2018-05-27T01:13:10.399Z,1013.79
2018-05-27T01:14:10.392Z,1013.77
2018-05-27T01:15:10.378Z,1013.78
2018-05-27T01:16:10.366Z,1013.73
2018-05-27T01:17:10.357Z,1013.74
2018-05-27T01:18:10.350Z,1013.75
2018-05-27T01:19:10.334Z,1013.70
2018-05-27T01:20:10.331Z,1013.71
2018-05-27T01:21:10.323Z,1013.70
2018-05-27T01:22:10.310Z,1013.66
2018-05-27T01:23:10.296Z,1013.63
2018-05-27T01:24:10.286Z,1013.66
2018-05-27T01:25:10.274Z,1013.64
2018-05-27T01:26:10.268Z,1013.58
2018-05-27T01:28:10.235Z,1013.61
2018-05-27T01:29:10.243Z,1013.67
2018-05-27T01:30:10.216Z,1013.61
2018-05-27T01:31:10.207Z,1013.63
2018-05-27T01:32:10.202Z,1013.66
2018-05-27T01:33:10.331Z,1013.67
2018-05-27T01:34:10.182Z,1013.65
2018-05-27T01:35:10.268Z,1013.69
2018-05-27T01:36:10.162Z,1013.70
2018-05-27T01:37:10.147Z,1013.67
2018-05-27T01:38:10.140Z,1013.68
2018-05-27T01:39:10.175Z,1013.66
2018-05-27T01:40:10.111Z,1013.64
2018-05-27T01:41:10.105Z,1013.62
2018-05-27T01:42:10.102Z,1013.66
2018-05-27T01:44:10.072Z,1013.62
2018-05-27T01:45:10.060Z,1013.62
2018-05-27T01:46:10.053Z,1013.60
2018-05-27T01:47:10.035Z,1013.62
2018-05-27T01:48:10.038Z,1013.58
2018-05-27T01:49:10.033Z,1013.61
2018-05-27T01:50:10.011Z,1013.59
2018-05-27T01:51:09.998Z,1013.54
2018-05-27T01:52:09.987Z,1013.55
2018-05-27T01:53:09.979Z,1013.51
2018-05-27T01:54:09.971Z,1013.51
2018-05-27T01:55:09.955Z,1013.51
2018-05-27T01:56:09.939Z,1013.49
2018-05-27T01:57:09.942Z,1013.50
2018-05-27T01:58:09.929Z,1013.46
2018-05-27T01:59:09.924Z,1013.48
2018-05-27T02:00:09.908Z,1013.44
2018-05-27T02:01:09.892Z,1013.42
2018-05-27T02:02:09.880Z,1013.42
2018-05-27T02:03:09.873Z,1013.40
2018-05-27T02:04:09.860Z,1013.42
2018-05-27T02:05:09.850Z,1013.41
2018-05-27T02:06:09.837Z,1013.41
2018-05-27T02:07:09.869Z,1013.40
2018-05-27T02:08:09.823Z,1013.41
2018-05-27T02:09:09.847Z,1013.43
2018-05-27T02:10:09.801Z,1013.42
2018-05-27T02:11:09.789Z,1013.40
2018-05-27T02:12:09.770Z,1013.39
2018-05-27T02:13:09.758Z,1013.38
2018-05-27T02:14:09.755Z,1013.38
2018-05-27T02:15:09.735Z,1013.37
2018-05-27T02:16:09.724Z,1013.35
2018-05-27T02:17:09.718Z,1013.33
2018-05-27T02:18:09.709Z,1013.32
2018-05-27T02:19:09.730Z,1013.32
2018-05-27T02:20:09.679Z,1013.32
2018-05-27T02:21:09.682Z,1013.33
2018-05-27T02:22:09.665Z,1013.32
2018-05-27T02:23:09.648Z,1013.33
2018-05-27T02:24:09.648Z,1013.33
2018-05-27T02:25:09.631Z,1013.37
2018-05-27T02:26:09.622Z,1013.43
2018-05-27T02:27:09.612Z,1013.42
2018-05-27T02:28:09.603Z,1013.41
2018-05-27T02:29:09.599Z,1013.41
2018-05-27T02:30:09.579Z,1013.42
2018-05-27T02:31:09.565Z,1013.39
2018-05-27T02:32:09.565Z,1013.41
2018-05-27T02:33:09.545Z,1013.41
2018-05-27T02:34:09.539Z,1013.40
2018-05-27T02:35:09.527Z,1013.41
2018-05-27T02:36:09.508Z,1013.39
2018-05-27T02:37:09.512Z,1013.41
2018-05-27T02:38:09.494Z,1013.39
2018-05-27T02:39:09.473Z,1013.40
2018-05-27T02:40:09.474Z,1013.37
2018-05-27T02:41:09.460Z,1013.39
2018-05-27T02:42:09.448Z,1013.33
2018-05-27T02:43:09.441Z,1013.36
2018-05-27T02:44:09.425Z,1013.35
2018-05-27T02:45:09.412Z,1013.34
2018-05-27T02:46:09.457Z,1013.37
2018-05-27T02:47:09.394Z,1013.33
2018-05-27T02:48:09.377Z,1013.33
2018-05-27T02:49:09.370Z,1013.36
2018-05-27T02:50:09.358Z,1013.35
2018-05-27T02:51:09.356Z,1013.37
2018-05-27T02:52:09.342Z,1013.40
2018-05-27T02:53:09.328Z,1013.41
2018-05-27T02:54:09.334Z,1013.37
2018-05-27T02:55:09.305Z,1013.38
2018-05-27T02:56:09.294Z,1013.41
2018-05-27T02:57:09.282Z,1013.38
2018-05-27T02:58:09.273Z,1013.42
2018-05-27T02:59:09.262Z,1013.41
2018-05-27T03:00:09.253Z,1013.46
2018-05-27T03:01:09.230Z,1013.51
2018-05-27T03:02:09.232Z,1013.53
2018-05-27T03:03:09.219Z,1013.50
2018-05-27T03:04:09.207Z,1013.53
2018-05-27T03:05:09.187Z,1013.53
2018-05-27T03:06:09.181Z,1013.53
2018-05-27T03:07:09.172Z,1013.54
2018-05-27T03:08:09.162Z,1013.49
2018-05-27T03:09:09.156Z,1013.48
2018-05-27T03:10:09.135Z,1013.52
2018-05-27T03:11:09.122Z,1013.44
2018-05-27T03:12:09.116Z,1013.46
2018-05-27T03:13:09.103Z,1013.46
2018-05-27T03:14:09.095Z,1013.45
2018-05-27T03:15:09.077Z,1013.49
2018-05-27T03:16:09.064Z,1013.48
2018-05-27T03:17:09.062Z,1013.48
2018-05-27T03:18:09.045Z,1013.48
2018-05-27T03:19:09.039Z,1013.51
2018-05-27T03:20:09.033Z,1013.52
2018-05-27T03:21:09.016Z,1013.52
2018-05-27T03:22:08.994Z,1013.50
2018-05-27T03:23:09.119Z,1013.51
2018-05-27T03:24:08.977Z,1013.44
2018-05-27T03:25:08.972Z,1013.48
2018-05-27T03:26:08.956Z,1013.46
2018-05-27T03:27:09.033Z,1013.44
2018-05-27T03:28:08.932Z,1013.47
2018-05-27T03:29:08.990Z,1013.45
2018-05-27T03:30:08.915Z,1013.43
2018-05-27T03:31:08.924Z,1013.45
2018-05-27T03:32:08.891Z,1013.41
2018-05-27T03:33:08.985Z,1013.44
2018-05-27T03:34:08.868Z,1013.43
2018-05-27T03:35:08.860Z,1013.45
2018-05-27T03:36:08.837Z,1013.44
2018-05-27T03:37:08.933Z,1013.45
2018-05-27T03:38:08.821Z,1013.43
2018-05-27T03:39:08.808Z,1013.44
2018-05-27T03:40:08.805Z,1013.43
2018-05-27T03:41:08.795Z,1013.40
2018-05-27T03:42:08.777Z,1013.39
2018-05-27T03:43:08.767Z,1013.43
2018-05-27T03:44:08.754Z,1013.42
2018-05-27T03:45:08.739Z,1013.42
2018-05-27T03:46:08.734Z,1013.42
2018-05-27T03:48:08.709Z,1013.45
2018-05-27T03:49:08.696Z,1013.44
2018-05-27T03:50:08.686Z,1013.40
2018-05-27T03:51:08.668Z,1013.43
2018-05-27T03:52:08.661Z,1013.42
2018-05-27T03:53:08.652Z,1013.44
2018-05-27T03:54:08.653Z,1013.43
2018-05-27T03:55:08.624Z,1013.43
2018-05-27T03:56:08.619Z,1013.47
2018-05-27T03:57:08.600Z,1013.48
2018-05-27T03:58:08.600Z,1013.45
2018-05-27T03:59:08.589Z,1013.50
2018-05-27T04:00:08.624Z,1013.46
2018-05-27T04:01:08.566Z,1013.47
2018-05-27T04:02:08.546Z,1013.45
2018-05-27T04:03:08.549Z,1013.43
2018-05-27T04:04:08.526Z,1013.44
2018-05-27T04:05:08.513Z,1013.40
2018-05-27T04:06:08.510Z,1013.40
2018-05-27T04:07:08.500Z,1013.40
2018-05-27T04:09:08.477Z,1013.37
2018-05-27T04:10:08.465Z,1013.39
2018-05-27T04:11:08.447Z,1013.36
2018-05-27T04:12:08.440Z,1013.38
2018-05-27T04:13:08.420Z,1013.40
2018-05-27T04:14:08.404Z,1013.37
2018-05-27T04:15:08.408Z,1013.31
2018-05-27T04:16:08.392Z,1013.33
2018-05-27T04:17:08.376Z,1013.35
2018-05-27T04:18:08.366Z,1013.32
2018-05-27T04:19:08.352Z,1013.30
2018-05-27T04:20:08.340Z,1013.33
2018-05-27T04:21:08.326Z,1013.28
2018-05-27T04:22:08.313Z,1013.30
2018-05-27T04:23:08.307Z,1013.29
2018-05-27T04:24:08.303Z,1013.29
2018-05-27T04:25:08.285Z,1013.31
2018-05-27T04:26:08.275Z,1013.28
2018-05-27T04:27:08.263Z,1013.31
2018-05-27T04:28:08.246Z,1013.33
2018-05-27T04:29:08.240Z,1013.33
2018-05-27T04:30:08.229Z,1013.35
2018-05-27T04:31:08.216Z,1013.36
2018-05-27T04:32:08.212Z,1013.34
2018-05-27T04:33:08.195Z,1013.38
2018-05-27T04:34:08.179Z,1013.34
2018-05-27T04:35:08.172Z,1013.32
2018-05-27T04:36:08.166Z,1013.29
2018-05-27T04:37:08.150Z,1013.25
2018-05-27T04:38:08.139Z,1013.25
2018-05-27T04:39:08.128Z,1013.19
2018-05-27T04:40:08.115Z,1013.17
2018-05-27T04:41:08.095Z,1013.15
2018-05-27T04:42:08.098Z,1013.16
2018-05-27T04:43:08.076Z,1013.19
2018-05-27T04:44:08.069Z,1013.19
2018-05-27T04:45:08.060Z,1013.18
2018-05-27T04:46:08.048Z,1013.18
2018-05-27T04:47:08.032Z,1013.19
2018-05-27T04:48:08.035Z,1013.18
2018-05-27T04:49:08.019Z,1013.19
2018-05-27T04:50:07.996Z,1013.20
2018-05-27T04:51:07.990Z,1013.23
2018-05-27T04:52:07.978Z,1013.20
2018-05-27T04:53:07.961Z,1013.18
2018-05-27T04:54:08.003Z,1013.15
2018-05-27T04:55:07.948Z,1013.17
2018-05-27T04:56:07.931Z,1013.15
2018-05-27T04:57:07.930Z,1013.16
2018-05-27T04:58:07.906Z,1013.19
2018-05-27T05:00:07.890Z,1013.15
2018-05-27T05:01:07.869Z,1013.18
2018-05-27T05:02:07.865Z,1013.14
2018-05-27T05:03:07.856Z,1013.20
2018-05-27T05:04:07.843Z,1013.19
2018-05-27T05:05:07.826Z,1013.21
2018-05-27T05:06:07.821Z,1013.19
2018-05-27T05:07:07.811Z,1013.21
2018-05-27T05:08:07.801Z,1013.21
2018-05-27T05:09:07.789Z,1013.23
2018-05-27T05:10:07.779Z,1013.22
2018-05-27T05:11:07.766Z,1013.22
2018-05-27T05:12:07.760Z,1013.20
2018-05-27T05:13:07.743Z,1013.18
2018-05-27T05:14:07.726Z,1013.21
2018-05-27T05:15:07.723Z,1013.20
2018-05-27T05:16:07.713Z,1013.19
2018-05-27T05:17:07.698Z,1013.18
2018-05-27T05:18:07.686Z,1013.20
2018-05-27T05:19:07.678Z,1013.21
2018-05-27T05:20:07.672Z,1013.21
2018-05-27T05:21:07.656Z,1013.26
2018-05-27T05:22:07.651Z,1013.32
2018-05-27T05:23:07.626Z,1013.30
2018-05-27T05:24:07.624Z,1013.34
2018-05-27T05:26:07.598Z,1013.37
2018-05-27T05:27:07.592Z,1013.40
2018-05-27T05:28:07.581Z,1013.40
2018-05-27T05:29:07.572Z,1013.35
2018-05-27T05:30:07.562Z,1013.37
2018-05-27T05:32:07.537Z,1013.43
2018-05-27T05:33:07.542Z,1013.43
2018-05-27T05:34:07.519Z,1013.43
2018-05-27T05:35:07.608Z,1013.37
2018-05-27T05:36:07.486Z,1013.42
2018-05-27T05:37:07.581Z,1013.45
2018-05-27T05:38:07.484Z,1013.46
2018-05-27T05:39:07.458Z,1013.46
2018-05-27T05:40:07.452Z,1013.43
2018-05-27T05:41:07.441Z,1013.45
2018-05-27T05:42:07.429Z,1013.48
2018-05-27T05:43:07.430Z,1013.48
2018-05-27T05:44:07.409Z,1013.50
2018-05-27T05:45:07.397Z,1013.51
2018-05-27T05:46:07.389Z,1013.48
2018-05-27T05:47:07.381Z,1013.53
2018-05-27T05:48:07.379Z,1013.50
2018-05-27T05:49:07.364Z,1013.48
2018-05-27T05:50:07.349Z,1013.46
2018-05-27T05:51:07.343Z,1013.47
2018-05-27T05:52:07.325Z,1013.46
2018-05-27T05:53:07.310Z,1013.48
2018-05-27T05:54:07.300Z,1013.48
2018-05-27T05:55:07.287Z,1013.47
2018-05-27T05:56:07.284Z,1013.53
2018-05-27T05:57:07.284Z,1013.53
2018-05-27T05:58:07.259Z,1013.53
2018-05-27T05:59:07.259Z,1013.52
2018-05-27T06:00:07.239Z,1013.57
2018-05-27T06:01:07.250Z,1013.53
2018-05-27T06:02:07.217Z,1013.60
2018-05-27T06:03:07.217Z,1013.60
2018-05-27T06:04:07.207Z,1013.60
2018-05-27T06:05:07.192Z,1013.63
2018-05-27T06:06:07.181Z,1013.62
2018-05-27T06:07:07.173Z,1013.62
2018-05-27T06:08:07.174Z,1013.66
2018-05-27T06:09:07.147Z,1013.65
2018-05-27T06:10:07.141Z,1013.70
2018-05-27T06:11:07.133Z,1013.69
2018-05-27T06:12:07.122Z,1013.69
2018-05-27T06:13:07.112Z,1013.72
2018-05-27T06:14:07.107Z,1013.72
2018-05-27T06:15:07.090Z,1013.69
2018-05-27T06:16:07.081Z,1013.72
2018-05-27T06:17:07.079Z,1013.69
2018-05-27T06:18:07.061Z,1013.69
2018-05-27T06:19:07.054Z,1013.69
2018-05-27T06:20:07.045Z,1013.67
2018-05-27T06:21:07.033Z,1013.69
2018-05-27T06:22:07.023Z,1013.66
2018-05-27T06:23:07.018Z,1013.66
2018-05-27T06:24:07.000Z,1013.66
2018-05-27T06:25:06.990Z,1013.67
2018-05-27T06:26:06.982Z,1013.66
2018-05-27T06:27:06.972Z,1013.60
2018-05-27T06:28:06.964Z,1013.64
2018-05-27T06:29:06.952Z,1013.58
2018-05-27T06:30:06.943Z,1013.57
2018-05-27T06:31:06.930Z,1013.59
2018-05-27T06:32:07.007Z,1013.58
2018-05-27T06:33:06.914Z,1013.60
2018-05-27T06:34:06.901Z,1013.56
2018-05-27T06:35:06.888Z,1013.55
2018-05-27T06:36:06.892Z,1013.58
2018-05-27T06:37:06.885Z,1013.58
2018-05-27T06:38:06.866Z,1013.63
2018-05-27T06:39:06.860Z,1013.62
2018-05-27T06:40:06.847Z,1013.61
2018-05-27T06:41:06.833Z,1013.64
2018-05-27T06:42:06.827Z,1013.65
2018-05-27T06:43:06.823Z,1013.64
2018-05-27T06:44:06.807Z,1013.62
2018-05-27T06:45:06.796Z,1013.70
2018-05-27T06:46:06.789Z,1013.70
2018-05-27T06:47:06.780Z,1013.66
2018-05-27T06:48:06.774Z,1013.64
2018-05-27T06:49:06.754Z,1013.65
2018-05-27T06:50:06.751Z,1013.66
2018-05-27T06:51:06.741Z,1013.66
2018-05-27T06:52:06.738Z,1013.63
2018-05-27T06:53:06.720Z,1013.67
2018-05-27T06:54:06.711Z,1013.66
2018-05-27T06:55:06.699Z,1013.65
2018-05-27T06:56:06.688Z,1013.67
2018-05-27T06:57:06.681Z,1013.65
2018-05-27T06:58:06.731Z,1013.65
2018-05-27T06:59:06.660Z,1013.62
2018-05-27T07:00:06.662Z,1013.63
2018-05-27T07:01:06.647Z,1013.61
2018-05-27T07:02:06.640Z,1013.64
2018-05-27T07:03:06.631Z,1013.63
2018-05-27T07:04:06.619Z,1013.64
2018-05-27T07:05:06.611Z,1013.62
2018-05-27T07:06:06.607Z,1013.66
2018-05-27T07:07:06.589Z,1013.62
2018-05-27T07:08:06.583Z,1013.66
2018-05-27T07:10:06.569Z,1013.62
2018-05-27T07:11:06.562Z,1013.62
2018-05-27T07:12:06.547Z,1013.63
2018-05-27T07:13:06.538Z,1013.62
2018-05-27T07:14:06.531Z,1013.62
2018-05-27T07:15:06.518Z,1013.62
2018-05-27T07:16:06.512Z,1013.65
2018-05-27T07:17:06.645Z,1013.62
2018-05-27T07:18:06.502Z,1013.63
2018-05-27T07:19:06.551Z,1013.62
2018-05-27T07:20:06.477Z,1013.62
2018-05-27T07:21:06.476Z,1013.63
2018-05-27T07:22:06.457Z,1013.64
2018-05-27T07:23:06.560Z,1013.59
2018-05-27T07:24:06.449Z,1013.57
2018-05-27T07:25:06.440Z,1013.56
2018-05-27T07:26:06.432Z,1013.60
2018-05-27T07:27:06.419Z,1013.58
2018-05-27T07:28:06.432Z,1013.59
2018-05-27T07:29:06.397Z,1013.57
2018-05-27T07:30:06.390Z,1013.64
2018-05-27T07:31:06.383Z,1013.60
2018-05-27T07:32:06.378Z,1013.60
2018-05-27T07:33:06.367Z,1013.60
2018-05-27T07:34:06.357Z,1013.60
2018-05-27T07:35:06.352Z,1013.60
2018-05-27T07:36:06.342Z,1013.56
2018-05-27T07:37:06.332Z,1013.58
2018-05-27T07:38:06.326Z,1013.54
2018-05-27T07:40:06.633Z,1013.52
2018-05-27T07:41:06.299Z,1013.52
2018-05-27T07:42:06.290Z,1013.48
2018-05-27T07:43:06.284Z,1013.49
2018-05-27T07:44:06.277Z,1013.46
2018-05-27T07:45:06.270Z,1013.43
2018-05-27T07:46:06.263Z,1013.40
2018-05-27T07:47:06.248Z,1013.44
2018-05-27T07:48:06.246Z,1013.38
2018-05-27T07:49:06.245Z,1013.44
2018-05-27T07:50:06.230Z,1013.41
2018-05-27T07:51:06.223Z,1013.42
2018-05-27T07:52:06.210Z,1013.41
2018-05-27T07:53:06.204Z,1013.41
2018-05-27T07:54:06.204Z,1013.40
2018-05-27T07:55:06.188Z,1013.40
2018-05-27T07:56:06.181Z,1013.44
2018-05-27T07:57:06.176Z,1013.44
2018-05-27T07:58:06.217Z,1013.45
2018-05-27T07:59:06.162Z,1013.42
2018-05-27T08:00:06.201Z,1013.43
2018-05-27T08:01:06.143Z,1013.48
2018-05-27T08:02:06.191Z,1013.44
2018-05-27T08:03:06.133Z,1013.46
2018-05-27T08:04:06.117Z,1013.45
2018-05-27T08:05:06.108Z,1013.44
2018-05-27T08:06:06.106Z,1013.49
2018-05-27T08:07:06.110Z,1013.45
2018-05-27T08:08:06.092Z,1013.42
2018-05-27T08:09:06.079Z,1013.41
2018-05-27T08:10:06.072Z,1013.39
2018-05-27T08:11:06.070Z,1013.39
2018-05-27T08:12:06.063Z,1013.37
2018-05-27T08:13:06.052Z,1013.41
2018-05-27T08:14:06.050Z,1013.39
2018-05-27T08:15:06.044Z,1013.38
2018-05-27T08:16:06.028Z,1013.38
2018-05-27T08:17:06.031Z,1013.32
2018-05-27T08:18:06.019Z,1013.30
2018-05-27T08:19:06.009Z,1013.33
2018-05-27T08:20:06.091Z,1013.30
2018-05-27T08:21:06.003Z,1013.31
2018-05-27T08:22:05.993Z,1013.27
2018-05-27T08:23:05.987Z,1013.26
2018-05-27T08:24:05.984Z,1013.26
2018-05-27T08:25:05.991Z,1013.27
2018-05-27T08:26:05.970Z,1013.29
2018-05-27T08:27:05.953Z,1013.28
2018-05-27T08:28:05.961Z,1013.27
2018-05-27T08:29:05.948Z,1013.27
2018-05-27T08:30:05.942Z,1013.26
2018-05-27T08:31:05.942Z,1013.23
2018-05-27T08:32:05.936Z,1013.30
2018-05-27T08:33:05.924Z,1013.24
2018-05-27T08:34:05.918Z,1013.24
2018-05-27T08:35:05.976Z,1013.19
2018-05-27T08:36:05.910Z,1013.20
2018-05-27T08:37:05.910Z,1013.23
2018-05-27T08:38:05.899Z,1013.20
2018-05-27T08:39:05.896Z,1013.28
2018-05-27T08:40:05.896Z,1013.39
2018-05-27T08:41:05.889Z,1013.53
2018-05-27T08:42:05.887Z,1013.65
2018-05-27T08:43:05.889Z,1013.75
2018-05-27T08:44:05.886Z,1013.76
2018-05-27T08:45:05.878Z,1013.96
2018-05-27T08:46:05.911Z,1014.08
2018-05-27T08:47:05.881Z,1014.03
2018-05-27T08:48:05.875Z,1014.04
2018-05-27T08:49:05.882Z,1014.08
2018-05-27T08:50:05.866Z,1014.04
2018-05-27T08:51:05.873Z,1014.01
2018-05-27T08:52:05.872Z,1014.01
2018-05-27T08:53:05.873Z,1014.04
2018-05-27T08:54:05.869Z,1014.01
2018-05-27T08:55:05.869Z,1013.99
2018-05-27T08:56:05.870Z,1014.00
2018-05-27T08:57:05.866Z,1014.03
2018-05-27T08:58:05.871Z,1014.00
2018-05-27T08:59:05.873Z,1013.98
2018-05-27T09:00:05.869Z,1013.94
2018-05-27T09:01:05.869Z,1013.91
2018-05-27T09:02:05.872Z,1013.92
2018-05-27T09:03:05.877Z,1013.92
2018-05-27T09:04:05.872Z,1013.88
2018-05-27T09:05:05.881Z,1013.87
2018-05-27T09:06:05.878Z,1013.89
2018-05-27T09:07:05.882Z,1013.82
2018-05-27T09:08:05.886Z,1013.81
2018-05-27T09:09:05.892Z,1013.83
2018-05-27T09:10:05.886Z,1013.82
2018-05-27T09:11:05.894Z,1013.82
2018-05-27T09:12:05.897Z,1013.85
2018-05-27T09:13:05.896Z,1013.82
2018-05-27T09:14:05.899Z,1013.75
2018-05-27T09:15:05.918Z,1013.73
2018-05-27T09:16:05.915Z,1013.74
2018-05-27T09:17:05.911Z,1013.72
2018-05-27T09:18:05.917Z,1013.76
2018-05-27T09:19:05.908Z,1013.70
2018-05-27T09:20:05.909Z,1013.72
2018-05-27T09:21:05.928Z,1013.71
2018-05-27T09:22:05.922Z,1013.72
2018-05-27T09:23:05.921Z,1013.71
2018-05-27T09:24:05.927Z,1013.70
2018-05-27T09:25:05.953Z,1013.68
2018-05-27T09:26:05.928Z,1013.61
2018-05-27T09:27:05.935Z,1013.65
2018-05-27T09:28:05.936Z,1013.61
2018-05-27T09:29:05.941Z,1013.61
2018-05-27T09:30:05.943Z,1013.61
2018-05-27T09:31:05.937Z,1013.57
2018-05-27T09:32:05.948Z,1013.50
2018-05-27T09:33:05.948Z,1013.51
2018-05-27T09:34:05.948Z,1013.54
2018-05-27T09:35:05.948Z,1013.53
2018-05-27T09:36:05.962Z,1013.48
2018-05-27T09:37:05.962Z,1013.47
2018-05-27T09:38:05.960Z,1013.51
2018-05-27T09:39:05.961Z,1013.51
2018-05-27T09:40:05.960Z,1013.55
2018-05-27T09:41:05.958Z,1013.52
2018-05-27T09:42:05.970Z,1013.49
2018-05-27T09:43:05.982Z,1013.48
2018-05-27T09:44:05.968Z,1013.48
2018-05-27T09:45:06.002Z,1013.48
2018-05-27T09:46:05.967Z,1013.46
2018-05-27T09:47:05.981Z,1013.49
2018-05-27T09:48:05.973Z,1013.43
2018-05-27T09:50:05.987Z,1013.33
2018-05-27T09:51:06.021Z,1013.33
2018-05-27T09:52:06.032Z,1013.33
2018-05-27T09:53:05.980Z,1013.36
2018-05-27T09:54:05.971Z,1013.34
2018-05-27T09:55:05.976Z,1013.35
2018-05-27T09:56:06.019Z,1013.38
2018-05-27T09:57:05.980Z,1013.36
2018-05-27T09:58:05.993Z,1013.27
2018-05-27T10:00:05.977Z,1013.30
2018-05-27T10:01:05.980Z,1013.34
2018-05-27T10:02:05.980Z,1013.32
2018-05-27T10:03:05.986Z,1013.37
2018-05-27T10:04:05.981Z,1013.33
2018-05-27T10:05:05.978Z,1013.30
2018-05-27T10:06:05.990Z,1013.31
2018-05-27T10:07:05.988Z,1013.32
2018-05-27T10:08:05.980Z,1013.29
2018-05-27T10:09:05.977Z,1013.29
2018-05-27T10:10:05.973Z,1013.30
2018-05-27T10:11:05.968Z,1013.30
2018-05-27T10:12:05.991Z,1013.24
2018-05-27T10:13:05.977Z,1013.19
2018-05-27T10:14:05.971Z,1013.17
2018-05-27T10:15:05.978Z,1013.16
2018-05-27T10:16:05.974Z,1013.17
2018-05-27T10:17:05.967Z,1013.24
2018-05-27T10:18:05.967Z,1013.17
2018-05-27T10:19:06.113Z,1013.24
2018-05-27T10:20:05.967Z,1013.22
2018-05-27T10:21:05.966Z,1013.13
2018-05-27T10:22:05.968Z,1013.19
2018-05-27T10:23:05.958Z,1013.15
2018-05-27T10:24:05.981Z,1013.15
2018-05-27T10:25:05.958Z,1013.11
2018-05-27T10:26:06.105Z,1013.09
2018-05-27T10:27:05.966Z,1013.13
2018-05-27T10:28:05.949Z,1013.20
2018-05-27T10:29:05.956Z,1013.16
2018-05-27T10:30:05.957Z,1013.14
2018-05-27T10:31:05.945Z,1013.11
2018-05-27T10:32:05.950Z,1013.03
2018-05-27T10:33:05.943Z,1013.08
2018-05-27T10:34:05.937Z,1013.14
2018-05-27T10:35:05.936Z,1013.03
2018-05-27T10:36:05.936Z,1013.05
2018-05-27T10:37:05.937Z,1012.99
2018-05-27T10:38:05.932Z,1013.00
2018-05-27T10:39:05.929Z,1013.01
2018-05-27T10:40:05.928Z,1013.03
2018-05-27T10:41:05.922Z,1013.01
2018-05-27T10:42:05.929Z,1012.96
2018-05-27T10:43:05.922Z,1012.97
2018-05-27T10:44:05.957Z,1012.99
2018-05-27T10:45:05.913Z,1012.91
2018-05-27T10:46:05.912Z,1012.94
2018-05-27T10:47:05.906Z,1012.87
2018-05-27T10:48:05.902Z,1012.84
2018-05-27T10:49:05.903Z,1012.83
2018-05-27T10:50:05.942Z,1012.85
2018-05-27T10:51:05.890Z,1012.91
2018-05-27T10:52:05.886Z,1012.90
2018-05-27T10:53:05.876Z,1012.87
2018-05-27T10:54:05.879Z,1012.90
2018-05-27T10:55:05.877Z,1012.84
2018-05-27T10:56:05.873Z,1012.81
2018-05-27T10:57:05.880Z,1012.81
2018-05-27T10:58:05.867Z,1012.82
2018-05-27T10:59:05.856Z,1012.78
2018-05-27T11:00:05.858Z,1012.78
2018-05-27T11:02:05.845Z,1012.70
2018-05-27T11:03:05.854Z,1012.71
2018-05-27T11:04:05.851Z,1012.66
2018-05-27T11:05:05.838Z,1012.65
2018-05-27T11:06:05.835Z,1012.65
2018-05-27T11:07:05.877Z,1012.65
2018-05-27T11:08:05.829Z,1012.59
2018-05-27T11:09:05.829Z,1012.58
2018-05-27T11:10:05.830Z,1012.60
2018-05-27T11:11:05.831Z,1012.60
2018-05-27T11:13:05.818Z,1012.59
2018-05-27T11:14:05.810Z,1012.58
2018-05-27T11:15:05.839Z,1012.58
2018-05-27T11:16:05.810Z,1012.53
2018-05-27T11:17:05.949Z,1012.52
2018-05-27T11:18:05.798Z,1012.49
2018-05-27T11:19:05.794Z,1012.47
2018-05-27T11:20:05.793Z,1012.43
2018-05-27T11:21:05.787Z,1012.43
2018-05-27T11:22:05.784Z,1012.42
2018-05-27T11:23:05.781Z,1012.40
2018-05-27T11:24:05.781Z,1012.41
2018-05-27T11:25:05.781Z,1012.44
2018-05-27T11:26:05.780Z,1012.39
2018-05-27T11:27:05.772Z,1012.43
2018-05-27T11:28:05.772Z,1012.47
2018-05-27T11:29:05.763Z,1012.43
2018-05-27T11:30:05.765Z,1012.43
2018-05-27T11:31:05.762Z,1012.44
2018-05-27T11:32:05.765Z,1012.46
2018-05-27T11:33:05.761Z,1012.45
2018-05-27T11:34:05.748Z,1012.32
2018-05-27T11:35:05.762Z,1012.36
2018-05-27T11:36:05.744Z,1012.39
2018-05-27T11:37:05.752Z,1012.31
2018-05-27T11:38:05.742Z,1012.31
2018-05-27T11:39:05.730Z,1012.30
2018-05-27T11:40:05.733Z,1012.25
2018-05-27T11:41:05.726Z,1012.24
2018-05-27T11:42:05.772Z,1012.31
2018-05-27T11:43:05.718Z,1012.31
2018-05-27T11:44:05.734Z,1012.32
2018-05-27T11:45:05.714Z,1012.29
2018-05-27T11:46:05.771Z,1012.30
2018-05-27T11:48:05.862Z,1012.20
2018-05-27T11:49:05.708Z,1012.20
2018-05-27T11:50:05.704Z,1012.21
2018-05-27T11:51:05.700Z,1012.24
2018-05-27T11:52:05.692Z,1012.19
2018-05-27T11:53:05.696Z,1012.24
2018-05-27T11:54:05.688Z,1012.21
2018-05-27T11:55:05.691Z,1012.24
2018-05-27T11:56:05.685Z,1012.23
2018-05-27T11:57:05.681Z,1012.20
2018-05-27T11:58:05.675Z,1012.22
2018-05-27T11:59:05.675Z,1012.23
2018-05-27T12:00:05.672Z,1012.20
2018-05-27T12:01:05.673Z,1012.23
2018-05-27T12:02:05.776Z,1012.19
2018-05-27T12:03:05.661Z,1012.22
2018-05-27T12:04:05.672Z,1012.17
2018-05-27T12:06:05.646Z,1012.15
2018-05-27T12:07:05.650Z,1012.17
2018-05-27T12:08:05.643Z,1012.11
2018-05-27T12:09:05.772Z,1012.13
2018-05-27T12:10:05.637Z,1012.12
2018-05-27T12:11:05.745Z,1012.11
2018-05-27T12:12:05.638Z,1012.10
2018-05-27T12:13:05.630Z,1012.16
2018-05-27T12:14:05.638Z,1012.17
2018-05-27T12:15:05.648Z,1012.05
2018-05-27T12:16:05.627Z,1012.07
2018-05-27T12:17:05.672Z,1012.04
2018-05-27T12:18:05.618Z,1012.04
2018-05-27T12:19:05.616Z,1012.03
2018-05-27T12:20:05.611Z,1011.93
2018-05-27T12:21:05.618Z,1011.95
2018-05-27T12:22:05.646Z,1011.98
2018-05-27T12:25:05.595Z,1011.82